createdAt,value
2018-12-18T00:00:51.028Z,5.54
2018-12-18T00:01:51.005Z,5.56
2018-12-18T00:02:51.167Z,5.57
2018-12-18T00:03:51.049Z,5.6
2018-12-18T00:04:50.991Z,5.59
2018-12-18T00:05:51.082Z,5.54
2018-12-18T00:06:51.057Z,5.57
2018-12-18T00:07:51.059Z,5.57
2018-12-18T00:08:51.003Z,5.56
2018-12-18T00:09:51.064Z,5.57
2018-12-18T00:10:50.994Z,5.57
2018-12-18T00:11:51.205Z,5.56
2018-12-18T00:12:51.007Z,5.57
2018-12-18T00:13:51.060Z,5.56
2018-12-18T00:14:51.231Z,5.57
2018-12-18T00:15:51.438Z,5.56
2018-12-18T00:16:51.270Z,5.54
2018-12-18T00:17:51.414Z,5.57
2018-12-18T00:18:50.988Z,5.57
2018-12-18T00:19:51.288Z,5.54
2018-12-18T00:20:51.073Z,5.57
2018-12-18T00:21:51.146Z,5.56
2018-12-18T00:22:51.049Z,5.56
2018-12-18T00:23:51.215Z,5.54
2018-12-18T00:24:51.352Z,5.56
2018-12-18T00:25:50.972Z,5.54
2018-12-18T00:26:51.133Z,5.53
2018-12-18T00:27:51.118Z,5.56
2018-12-18T00:28:50.974Z,5.51
2018-12-18T00:29:51.338Z,5.53
2018-12-18T00:30:51.114Z,5.56
2018-12-18T00:31:51.172Z,5.53
2018-12-18T00:32:50.941Z,5.53
2018-12-18T00:33:51.048Z,5.53
2018-12-18T00:34:51.154Z,5.5
2018-12-18T00:35:51.038Z,5.51
2018-12-18T00:36:51.783Z,5.54
2018-12-18T00:37:51.246Z,5.56
2018-12-18T00:38:51.082Z,5.57
2018-12-18T00:39:51.766Z,5.57
2018-12-18T00:40:51.307Z,5.57
2018-12-18T00:41:51.087Z,5.56
2018-12-18T00:42:51.167Z,5.56
2018-12-18T00:43:51.286Z,5.56
2018-12-18T00:44:51.309Z,5.54
2018-12-18T00:45:51.295Z,5.54
2018-12-18T00:46:51.206Z,5.53
2018-12-18T00:47:51.386Z,5.51
2018-12-18T00:48:51.073Z,5.51
2018-12-18T00:49:51.021Z,5.53
2018-12-18T00:50:51.113Z,5.51
2018-12-18T00:51:51.118Z,5.51
2018-12-18T00:52:51.257Z,5.51
2018-12-18T00:53:50.994Z,5.5
2018-12-18T00:54:50.973Z,5.5
2018-12-18T00:55:50.892Z,5.47
2018-12-18T00:56:50.975Z,5.47
2018-12-18T00:57:51.134Z,5.49
2018-12-18T00:58:50.974Z,5.45
2018-12-18T00:59:51.182Z,5.46
2018-12-18T01:00:50.900Z,5.42
2018-12-18T01:01:51.059Z,5.42
2018-12-18T01:02:50.919Z,5.42
2018-12-18T01:03:53.171Z,5.4
2018-12-18T01:04:51.001Z,5.39
2018-12-18T01:05:51.058Z,5.38
2018-12-18T01:06:51.300Z,5.4
2018-12-18T01:07:53.642Z,5.4
2018-12-18T01:08:50.986Z,5.38
2018-12-18T01:09:51.087Z,5.39
2018-12-18T01:10:51.005Z,5.35
2018-12-18T01:11:51.026Z,5.36
2018-12-18T01:12:51.627Z,5.36
2018-12-18T01:13:51.059Z,5.38
2018-12-18T01:14:50.883Z,5.36
2018-12-18T01:15:51.021Z,5.38
2018-12-18T01:16:51.095Z,5.33
2018-12-18T01:17:51.778Z,5.33
2018-12-18T01:18:51.404Z,5.35
2018-12-18T01:19:50.982Z,5.33
2018-12-18T01:20:51.023Z,5.33
2018-12-18T01:21:50.963Z,5.3
2018-12-18T01:22:50.956Z,5.3
2018-12-18T01:23:50.895Z,5.28
2018-12-18T01:24:51.076Z,5.28
2018-12-18T01:25:50.958Z,5.28
2018-12-18T01:26:50.932Z,5.26
2018-12-18T01:27:50.969Z,5.26
2018-12-18T01:28:50.995Z,5.25
2018-12-18T01:29:50.970Z,5.25
2018-12-18T01:30:50.954Z,5.23
2018-12-18T01:31:50.968Z,5.23
2018-12-18T01:32:51.007Z,5.22
2018-12-18T01:33:50.998Z,5.21
2018-12-18T01:34:50.945Z,5.21
2018-12-18T01:35:50.824Z,5.18
2018-12-18T01:36:50.976Z,5.16
2018-12-18T01:37:51.021Z,5.15
2018-12-18T01:38:50.998Z,5.16
2018-12-18T01:39:50.961Z,5.14
2018-12-18T01:40:50.963Z,5.15
2018-12-18T01:41:50.828Z,5.15
2018-12-18T01:42:50.876Z,5.12
2018-12-18T01:43:51.024Z,5.1
2018-12-18T01:44:50.855Z,5.08
2018-12-18T01:45:50.960Z,5.1
2018-12-18T01:46:50.929Z,5.05
2018-12-18T01:47:50.867Z,5.07
2018-12-18T01:48:51.136Z,5.07
2018-12-18T01:49:50.961Z,5.02
2018-12-18T01:50:51.082Z,5.02
2018-12-18T01:51:51.034Z,5.01
2018-12-18T01:52:50.894Z,5.01
2018-12-18T01:53:50.980Z,4.97
2018-12-18T01:54:51.062Z,4.94
2018-12-18T01:55:51.166Z,4.91
2018-12-18T01:56:50.806Z,4.86
2018-12-18T01:57:50.972Z,4.86
2018-12-18T01:58:50.819Z,4.83
2018-12-18T01:59:50.904Z,4.81
2018-12-18T02:00:51.018Z,4.79
2018-12-18T02:01:50.815Z,4.77
2018-12-18T02:02:51.667Z,4.76
2018-12-18T02:03:50.861Z,4.77
2018-12-18T02:04:51.074Z,4.73
2018-12-18T02:05:51.084Z,4.72
2018-12-18T02:06:50.777Z,4.74
2018-12-18T02:07:51.196Z,4.74
2018-12-18T02:08:50.887Z,4.74
2018-12-18T02:09:51.072Z,4.72
2018-12-18T02:10:51.014Z,4.7
2018-12-18T02:11:51.091Z,4.69
2018-12-18T02:12:50.842Z,4.72
2018-12-18T02:13:50.856Z,4.67
2018-12-18T02:14:50.804Z,4.67
2018-12-18T02:15:50.779Z,4.66
2018-12-18T02:16:51.028Z,4.65
2018-12-18T02:17:51.035Z,4.67
2018-12-18T02:18:51.080Z,4.66
2018-12-18T02:19:51.196Z,4.62
2018-12-18T02:20:51.047Z,4.62
2018-12-18T02:21:50.985Z,4.6
2018-12-18T02:22:51.069Z,4.57
2018-12-18T02:23:50.782Z,4.53
2018-12-18T02:24:51.257Z,4.52
2018-12-18T02:25:50.927Z,4.51
2018-12-18T02:26:50.802Z,4.51
2018-12-18T02:27:51.040Z,4.48
2018-12-18T02:28:50.974Z,4.46
2018-12-18T02:29:51.134Z,4.46
2018-12-18T02:30:50.941Z,4.46
2018-12-18T02:31:51.093Z,4.45
2018-12-18T02:32:50.790Z,4.45
2018-12-18T02:33:50.899Z,4.4
2018-12-18T02:34:50.864Z,4.36
2018-12-18T02:35:50.817Z,4.33
2018-12-18T02:36:51.008Z,4.3
2018-12-18T02:37:50.964Z,4.26
2018-12-18T02:38:50.992Z,4.26
2018-12-18T02:39:51.251Z,4.26
2018-12-18T02:40:50.800Z,4.28
2018-12-18T02:41:51.073Z,4.25
2018-12-18T02:42:51.078Z,4.25
2018-12-18T02:43:51.207Z,4.25
2018-12-18T02:44:50.776Z,4.24
2018-12-18T02:45:51.584Z,4.26
2018-12-18T02:46:50.883Z,4.22
2018-12-18T02:47:51.592Z,4.22
2018-12-18T02:48:50.977Z,4.21
2018-12-18T02:49:50.877Z,4.22
2018-12-18T02:50:51.056Z,4.24
2018-12-18T02:51:50.761Z,4.22
2018-12-18T02:52:50.945Z,4.21
2018-12-18T02:53:51.075Z,4.18
2018-12-18T02:54:50.734Z,4.19
2018-12-18T02:55:51.045Z,4.17
2018-12-18T02:56:50.745Z,4.17
2018-12-18T02:57:50.856Z,4.15
2018-12-18T02:58:50.766Z,4.17
2018-12-18T02:59:50.837Z,4.11
2018-12-18T03:00:50.750Z,4.12
2018-12-18T03:01:51.090Z,4.11
2018-12-18T03:02:50.765Z,4.14
2018-12-18T03:03:50.756Z,4.11
2018-12-18T03:04:50.942Z,4.1
2018-12-18T03:05:50.800Z,4.04
2018-12-18T03:06:50.750Z,4.04
2018-12-18T03:07:50.741Z,4.02
2018-12-18T03:08:50.770Z,4.01
2018-12-18T03:09:50.776Z,4.02
2018-12-18T03:10:50.779Z,4.02
2018-12-18T03:11:50.754Z,3.98
2018-12-18T03:12:50.899Z,3.97
2018-12-18T03:13:50.751Z,3.97
2018-12-18T03:14:50.753Z,3.98
2018-12-18T03:15:50.727Z,3.94
2018-12-18T03:16:50.855Z,3.94
2018-12-18T03:17:50.810Z,3.93
2018-12-18T03:18:50.782Z,3.9
2018-12-18T03:19:50.753Z,3.89
2018-12-18T03:20:50.751Z,3.86
2018-12-18T03:21:50.809Z,3.84
2018-12-18T03:22:50.737Z,3.86
2018-12-18T03:23:50.834Z,3.86
2018-12-18T03:24:50.740Z,3.86
2018-12-18T03:25:50.761Z,3.86
2018-12-18T03:26:51.103Z,3.86
2018-12-18T03:27:50.896Z,3.84
2018-12-18T03:28:51.061Z,3.84
2018-12-18T03:29:51.560Z,3.84
2018-12-18T03:30:50.928Z,3.87
2018-12-18T03:31:51.229Z,3.87
2018-12-18T03:32:50.758Z,3.89
2018-12-18T03:33:51.019Z,3.86
2018-12-18T03:34:50.845Z,3.89
2018-12-18T03:35:50.828Z,3.9
2018-12-18T03:36:51.030Z,3.9
2018-12-18T03:37:50.742Z,3.89
2018-12-18T03:38:51.039Z,3.91
2018-12-18T03:39:50.746Z,3.89
2018-12-18T03:40:50.713Z,3.9
2018-12-18T03:41:51.080Z,3.9
2018-12-18T03:42:50.962Z,3.9
2018-12-18T03:43:50.992Z,3.9
2018-12-18T03:44:50.887Z,3.9
2018-12-18T03:45:50.923Z,3.89
2018-12-18T03:46:50.933Z,3.9
2018-12-18T03:47:50.750Z,3.91
2018-12-18T03:48:50.678Z,3.93
2018-12-18T03:49:50.823Z,3.94
2018-12-18T03:50:51.037Z,3.93
2018-12-18T03:51:50.662Z,3.93
2018-12-18T03:52:50.903Z,3.93
2018-12-18T03:53:50.941Z,3.91
2018-12-18T03:54:50.692Z,3.9
2018-12-18T03:55:50.779Z,3.89
2018-12-18T03:56:50.868Z,3.91
2018-12-18T03:57:50.815Z,3.9
2018-12-18T03:58:50.934Z,3.87
2018-12-18T03:59:50.979Z,3.87
2018-12-18T04:00:51.495Z,3.87
2018-12-18T04:01:50.707Z,3.87
2018-12-18T04:02:50.894Z,3.86
2018-12-18T04:03:50.918Z,3.84
2018-12-18T04:04:50.846Z,3.84
2018-12-18T04:05:51.018Z,3.8
2018-12-18T04:06:50.989Z,3.8
2018-12-18T04:07:50.666Z,3.8
2018-12-18T04:08:50.638Z,3.79
2018-12-18T04:09:51.070Z,3.77
2018-12-18T04:10:51.019Z,3.76
2018-12-18T04:11:50.790Z,3.77
2018-12-18T04:12:50.703Z,3.77
2018-12-18T04:13:50.715Z,3.73
2018-12-18T04:14:50.725Z,3.73
2018-12-18T04:15:50.686Z,3.74
2018-12-18T04:16:50.677Z,3.74
2018-12-18T04:17:50.661Z,3.74
2018-12-18T04:18:50.635Z,3.7
2018-12-18T04:19:50.654Z,3.69
2018-12-18T04:20:50.963Z,3.67
2018-12-18T04:21:51.021Z,3.69
2018-12-18T04:22:50.821Z,3.67
2018-12-18T04:23:50.821Z,3.67
2018-12-18T04:24:50.647Z,3.65
2018-12-18T04:25:50.636Z,3.63
2018-12-18T04:26:50.724Z,3.63
2018-12-18T04:27:50.841Z,3.61
2018-12-18T04:28:50.869Z,3.61
2018-12-18T04:29:50.690Z,3.58
2018-12-18T04:30:50.672Z,3.54
2018-12-18T04:31:50.749Z,3.56
2018-12-18T04:32:50.637Z,3.55
2018-12-18T04:33:50.993Z,3.52
2018-12-18T04:34:50.788Z,3.51
2018-12-18T04:35:50.621Z,3.49
2018-12-18T04:36:51.058Z,3.51
2018-12-18T04:37:50.665Z,3.49
2018-12-18T04:38:50.820Z,3.49
2018-12-18T04:39:50.622Z,3.49
2018-12-18T04:40:50.849Z,3.45
2018-12-18T04:41:50.601Z,3.45
2018-12-18T04:42:50.679Z,3.42
2018-12-18T04:43:50.668Z,3.42
2018-12-18T04:44:50.634Z,3.42
2018-12-18T04:45:50.618Z,3.41
2018-12-18T04:46:50.598Z,3.41
2018-12-18T04:47:50.594Z,3.41
2018-12-18T04:48:50.769Z,3.42
2018-12-18T04:49:50.633Z,3.39
2018-12-18T04:50:50.706Z,3.37
2018-12-18T04:51:50.594Z,3.38
2018-12-18T04:52:50.714Z,3.35
2018-12-18T04:53:50.757Z,3.35
2018-12-18T04:54:50.588Z,3.34
2018-12-18T04:55:50.734Z,3.31
2018-12-18T04:56:50.774Z,3.32
2018-12-18T04:57:50.685Z,3.32
2018-12-18T04:58:50.737Z,3.29
2018-12-18T04:59:50.659Z,3.28
2018-12-18T05:00:50.587Z,3.29
2018-12-18T05:01:50.946Z,3.28
2018-12-18T05:02:50.690Z,3.25
2018-12-18T05:03:50.721Z,3.27
2018-12-18T05:04:50.907Z,3.27
2018-12-18T05:05:50.846Z,3.22
2018-12-18T05:06:50.698Z,3.21
2018-12-18T05:07:50.838Z,3.22
2018-12-18T05:08:50.707Z,3.21
2018-12-18T05:09:50.579Z,3.2
2018-12-18T05:10:50.597Z,3.15
2018-12-18T05:11:50.795Z,3.08
2018-12-18T05:12:50.998Z,3.03
2018-12-18T05:13:50.697Z,2.99
2018-12-18T05:14:50.802Z,3
2018-12-18T05:15:50.553Z,3.01
2018-12-18T05:16:50.796Z,3.01
2018-12-18T05:17:50.584Z,3
2018-12-18T05:18:50.579Z,3.01
2018-12-18T05:19:50.945Z,2.99
2018-12-18T05:20:50.761Z,2.99
2018-12-18T05:21:51.368Z,3.01
2018-12-18T05:22:50.661Z,3
2018-12-18T05:23:50.675Z,3.01
2018-12-18T05:24:50.738Z,3
2018-12-18T05:25:50.975Z,2.96
2018-12-18T05:26:50.538Z,2.94
2018-12-18T05:27:50.561Z,2.94
2018-12-18T05:28:50.802Z,2.92
2018-12-18T05:29:50.669Z,2.87
2018-12-18T05:30:50.347Z,2.9
2018-12-18T05:31:50.690Z,2.92
2018-12-18T05:32:50.649Z,2.9
2018-12-18T05:33:50.717Z,2.86
2018-12-18T05:35:28.247Z,2.87
2018-12-18T05:35:50.540Z,2.87
2018-12-18T05:36:51.384Z,2.8
2018-12-18T05:37:50.696Z,2.8
2018-12-18T05:38:50.834Z,2.8
2018-12-18T05:39:50.912Z,2.79
2018-12-18T05:40:50.974Z,2.79
2018-12-18T05:41:50.703Z,2.8
2018-12-18T05:42:50.719Z,2.8
2018-12-18T05:43:50.662Z,2.82
2018-12-18T05:44:50.614Z,2.8
2018-12-18T05:45:50.709Z,2.8
2018-12-18T05:46:50.551Z,2.79
2018-12-18T05:47:50.609Z,2.79
2018-12-18T05:48:51.359Z,2.77
2018-12-18T05:49:50.761Z,2.77
2018-12-18T05:50:50.622Z,2.79
2018-12-18T05:51:50.719Z,2.76
2018-12-18T05:52:50.638Z,2.8
2018-12-18T05:53:50.627Z,2.76
2018-12-18T05:54:50.580Z,2.77
2018-12-18T05:55:50.613Z,2.75
2018-12-18T05:56:50.512Z,2.75
2018-12-18T05:57:50.499Z,2.77
2018-12-18T05:58:51.328Z,2.79
2018-12-18T05:59:50.933Z,2.76
2018-12-18T06:00:50.508Z,2.79
2018-12-18T06:01:51.067Z,2.82
2018-12-18T06:02:50.559Z,2.82
2018-12-18T06:03:50.780Z,2.84
2018-12-18T06:04:50.554Z,2.82
2018-12-18T06:05:51.071Z,2.83
2018-12-18T06:06:50.717Z,2.83
2018-12-18T06:07:50.535Z,2.84
2018-12-18T06:08:50.503Z,2.86
2018-12-18T06:09:50.682Z,2.87
2018-12-18T06:10:50.640Z,2.87
2018-12-18T06:11:50.749Z,2.86
2018-12-18T06:12:50.879Z,2.82
2018-12-18T06:13:50.559Z,2.77
2018-12-18T06:14:50.598Z,2.79
2018-12-18T06:15:50.471Z,2.8
2018-12-18T06:16:50.662Z,2.79
2018-12-18T06:17:50.466Z,2.77
2018-12-18T06:18:50.465Z,2.77
2018-12-18T06:19:50.575Z,2.76
2018-12-18T06:20:50.829Z,2.75
2018-12-18T06:21:50.472Z,2.75
2018-12-18T06:22:50.454Z,2.71
2018-12-18T06:23:51.170Z,2.73
2018-12-18T06:24:50.448Z,2.75
2018-12-18T06:25:50.455Z,2.73
2018-12-18T06:26:50.430Z,2.73
2018-12-18T06:27:50.530Z,2.73
2018-12-18T06:28:50.535Z,2.72
2018-12-18T06:29:50.433Z,2.68
2018-12-18T06:30:50.573Z,2.68
2018-12-18T06:31:50.499Z,2.68
2018-12-18T06:32:50.669Z,2.65
2018-12-18T06:33:50.466Z,2.64
2018-12-18T06:34:50.471Z,2.64
2018-12-18T06:35:50.799Z,2.66
2018-12-18T06:36:50.714Z,2.69
2018-12-18T06:37:50.609Z,2.72
2018-12-18T06:38:50.730Z,2.73
2018-12-18T06:39:51.281Z,2.75
2018-12-18T06:40:50.594Z,2.75
2018-12-18T06:41:50.492Z,2.79
2018-12-18T06:42:50.442Z,2.82
2018-12-18T06:43:50.509Z,2.83
2018-12-18T06:44:50.453Z,2.87
2018-12-18T06:45:50.593Z,2.89
2018-12-18T06:46:50.539Z,2.92
2018-12-18T06:47:50.485Z,2.92
2018-12-18T06:48:50.804Z,2.92
2018-12-18T06:49:50.467Z,2.9
2018-12-18T06:50:50.571Z,2.89
2018-12-18T06:51:51.270Z,2.92
2018-12-18T06:52:50.520Z,2.93
2018-12-18T06:53:50.491Z,2.93
2018-12-18T06:54:50.874Z,2.94
2018-12-18T06:55:50.426Z,3
2018-12-18T06:56:50.534Z,3.01
2018-12-18T06:57:50.590Z,3.01
2018-12-18T06:58:50.428Z,3
2018-12-18T06:59:50.545Z,3.03
2018-12-18T07:00:50.702Z,3.04
2018-12-18T07:01:50.479Z,3.04
2018-12-18T07:02:50.798Z,3.06
2018-12-18T07:03:50.509Z,3.07
2018-12-18T07:04:50.650Z,3.1
2018-12-18T07:05:50.748Z,3.08
2018-12-18T07:06:50.738Z,3.11
2018-12-18T07:07:57.837Z,3.11
2018-12-18T07:08:50.408Z,3.12
2018-12-18T07:09:50.656Z,3.12
2018-12-18T07:10:51.142Z,3.14
2018-12-18T07:11:50.755Z,3.15
2018-12-18T07:12:50.414Z,3.17
2018-12-18T07:13:50.667Z,3.17
2018-12-18T07:14:50.524Z,3.14
2018-12-18T07:15:50.426Z,3.15
2018-12-18T07:16:50.682Z,3.14
2018-12-18T07:17:50.610Z,3.11
2018-12-18T07:18:50.668Z,3.08
2018-12-18T07:19:50.863Z,3.11
2018-12-18T07:20:50.445Z,3.1
2018-12-18T07:21:50.707Z,3.08
2018-12-18T07:22:50.421Z,3.12
2018-12-18T07:23:50.769Z,3.14
2018-12-18T07:24:50.379Z,3.17
2018-12-18T07:25:50.393Z,3.17
2018-12-18T07:26:50.625Z,3.15
2018-12-18T07:27:50.503Z,3.14
2018-12-18T07:28:50.537Z,3.1
2018-12-18T07:29:50.502Z,3.12
2018-12-18T07:30:50.426Z,3.12
2018-12-18T07:31:50.661Z,3.15
2018-12-18T07:32:50.504Z,3.2
2018-12-18T07:33:50.416Z,3.17
2018-12-18T07:34:50.648Z,3.17
2018-12-18T07:35:50.586Z,3.18
2018-12-18T07:36:51.472Z,3.2
2018-12-18T07:37:50.529Z,3.18
2018-12-18T07:38:50.404Z,3.21
2018-12-18T07:39:50.372Z,3.22
2018-12-18T07:40:50.576Z,3.24
2018-12-18T07:41:50.553Z,3.22
2018-12-18T07:42:50.335Z,3.22
2018-12-18T07:43:50.408Z,3.25
2018-12-18T07:44:50.576Z,3.28
2018-12-18T07:45:50.405Z,3.27
2018-12-18T07:46:50.602Z,3.25
2018-12-18T07:47:50.527Z,3.28
2018-12-18T07:48:50.402Z,3.28
2018-12-18T07:49:50.350Z,3.25
2018-12-18T07:50:50.379Z,3.25
2018-12-18T07:51:50.471Z,3.25
2018-12-18T07:52:50.358Z,3.22
2018-12-18T07:53:50.426Z,3.21
2018-12-18T07:54:50.825Z,3.21
2018-12-18T07:55:50.511Z,3.2
2018-12-18T07:56:50.564Z,3.18
2018-12-18T07:57:50.362Z,3.17
2018-12-18T07:58:50.306Z,3.17
2018-12-18T07:59:50.314Z,3.2
2018-12-18T08:00:50.478Z,3.18
2018-12-18T08:01:50.333Z,3.2
2018-12-18T08:02:50.436Z,3.17
2018-12-18T08:03:50.515Z,3.18
2018-12-18T08:04:50.358Z,3.18
2018-12-18T08:05:50.328Z,3.2
2018-12-18T08:06:50.368Z,3.22
2018-12-18T08:07:50.340Z,3.21
2018-12-18T08:08:50.301Z,3.21
2018-12-18T08:09:50.454Z,3.22
2018-12-18T08:10:50.496Z,3.22
2018-12-18T08:11:50.357Z,3.24
2018-12-18T08:12:50.423Z,3.24
2018-12-18T08:13:50.709Z,3.25
2018-12-18T08:14:50.414Z,3.27
2018-12-18T08:15:51.185Z,3.27
2018-12-18T08:16:50.404Z,3.29
2018-12-18T08:17:50.507Z,3.29
2018-12-18T08:18:50.337Z,3.31
2018-12-18T08:19:50.461Z,3.31
2018-12-18T08:20:50.450Z,3.31
2018-12-18T08:21:50.524Z,3.32
2018-12-18T08:22:50.634Z,3.37
2018-12-18T08:23:50.571Z,3.37
2018-12-18T08:24:50.625Z,3.37
2018-12-18T08:25:50.314Z,3.39
2018-12-18T08:26:50.326Z,3.38
2018-12-18T08:27:50.269Z,3.41
2018-12-18T08:28:50.684Z,3.44
2018-12-18T08:29:50.463Z,3.42
2018-12-18T08:30:50.390Z,3.46
2018-12-18T08:31:50.532Z,3.45
2018-12-18T08:32:50.398Z,3.49
2018-12-18T08:33:50.542Z,3.52
2018-12-18T08:34:50.276Z,3.54
2018-12-18T08:35:50.328Z,3.55
2018-12-18T08:36:50.265Z,3.56
2018-12-18T08:37:50.301Z,3.58
2018-12-18T08:38:51.094Z,3.58
2018-12-18T08:39:50.658Z,3.59
2018-12-18T08:40:50.378Z,3.62
2018-12-18T08:41:50.486Z,3.63
2018-12-18T08:42:50.543Z,3.62
2018-12-18T08:43:50.424Z,3.65
2018-12-18T08:44:50.368Z,3.66
2018-12-18T08:45:50.342Z,3.67
2018-12-18T08:46:50.569Z,3.67
2018-12-18T08:47:50.398Z,3.7
2018-12-18T08:48:50.273Z,3.69
2018-12-18T08:49:50.341Z,3.69
2018-12-18T08:50:51.102Z,3.72
2018-12-18T08:51:50.492Z,3.76
2018-12-18T08:52:50.303Z,3.79
2018-12-18T08:53:51.098Z,3.79
2018-12-18T08:54:50.270Z,3.8
2018-12-18T08:55:50.281Z,3.8
2018-12-18T08:56:50.299Z,3.82
2018-12-18T08:57:50.464Z,3.82
2018-12-18T08:58:50.473Z,3.84
2018-12-18T08:59:51.089Z,3.84
2018-12-18T09:00:50.343Z,3.87
2018-12-18T09:01:50.255Z,3.84
2018-12-18T09:02:50.443Z,3.87
2018-12-18T09:03:50.478Z,3.87
2018-12-18T09:04:50.269Z,3.9
2018-12-18T09:05:50.283Z,3.91
2018-12-18T09:06:50.288Z,3.91
2018-12-18T09:07:50.565Z,3.94
2018-12-18T09:08:50.520Z,3.91
2018-12-18T09:09:50.342Z,3.93
2018-12-18T09:10:50.193Z,3.94
2018-12-18T09:11:50.577Z,3.96
2018-12-18T09:12:50.480Z,3.96
2018-12-18T09:13:50.298Z,3.96
2018-12-18T09:14:50.217Z,3.97
2018-12-18T09:15:50.195Z,3.97
2018-12-18T09:16:50.447Z,4
2018-12-18T09:17:50.406Z,3.98
2018-12-18T09:18:50.209Z,4
2018-12-18T09:19:50.276Z,4.01
2018-12-18T09:20:50.208Z,4.04
2018-12-18T09:21:51.006Z,4.04
2018-12-18T09:22:50.424Z,4.02
2018-12-18T09:23:51.065Z,4.05
2018-12-18T09:24:50.797Z,4.04
2018-12-18T09:25:50.249Z,4.08
2018-12-18T09:26:50.666Z,4.11
2018-12-18T09:27:50.503Z,4.11
2018-12-18T09:28:50.262Z,4.1
2018-12-18T09:29:50.204Z,4.14
2018-12-18T09:30:50.205Z,4.14
2018-12-18T09:31:50.267Z,4.15
2018-12-18T09:32:50.222Z,4.17
2018-12-18T09:33:50.437Z,4.21
2018-12-18T09:34:50.322Z,4.24
2018-12-18T09:35:50.263Z,4.22
2018-12-18T09:36:50.186Z,4.21
2018-12-18T09:37:50.568Z,4.25
2018-12-18T09:38:50.307Z,4.25
2018-12-18T09:39:50.461Z,4.28
2018-12-18T09:40:50.294Z,4.26
2018-12-18T09:41:50.210Z,4.26
2018-12-18T09:42:50.203Z,4.3
2018-12-18T09:43:50.486Z,4.28
2018-12-18T09:44:50.222Z,4.29
2018-12-18T09:45:50.316Z,4.3
2018-12-18T09:46:51.173Z,4.29
2018-12-18T09:47:50.161Z,4.29
2018-12-18T09:48:50.221Z,4.29
2018-12-18T09:49:50.201Z,4.3
2018-12-18T09:50:50.295Z,4.32
2018-12-18T09:51:50.421Z,4.35
2018-12-18T09:52:50.278Z,4.33
2018-12-18T09:53:50.230Z,4.36
2018-12-18T09:54:50.251Z,4.39
2018-12-18T09:55:50.261Z,4.38
2018-12-18T09:56:50.268Z,4.4
2018-12-18T09:57:50.195Z,4.43
2018-12-18T09:58:50.262Z,4.42
2018-12-18T09:59:50.322Z,4.43
2018-12-18T10:00:50.458Z,4.45
2018-12-18T10:01:50.851Z,4.46
2018-12-18T10:02:50.719Z,4.49
2018-12-18T10:03:50.164Z,4.52
2018-12-18T10:04:50.296Z,4.52
2018-12-18T10:05:56.648Z,4.52
2018-12-18T10:06:50.518Z,4.53
2018-12-18T10:07:50.279Z,4.57
2018-12-18T10:08:50.459Z,4.55
2018-12-18T10:09:50.514Z,4.6
2018-12-18T10:10:50.258Z,4.6
2018-12-18T10:11:50.308Z,4.62
2018-12-18T10:12:50.162Z,4.66
2018-12-18T10:13:50.278Z,4.67
2018-12-18T10:14:50.453Z,4.67
2018-12-18T10:15:50.351Z,4.69
2018-12-18T10:16:50.211Z,4.73
2018-12-18T10:17:50.550Z,4.76
2018-12-18T10:18:50.688Z,4.77
2018-12-18T10:19:50.178Z,4.81
2018-12-18T10:20:50.185Z,4.8
2018-12-18T10:21:50.378Z,4.86
2018-12-18T10:22:50.207Z,4.88
2018-12-18T10:23:50.164Z,4.9
2018-12-18T10:24:50.228Z,4.93
2018-12-18T10:25:50.950Z,4.94
2018-12-18T10:26:50.434Z,4.94
2018-12-18T10:27:50.280Z,4.94
2018-12-18T10:28:50.365Z,4.95
2018-12-18T10:29:50.219Z,4.97
2018-12-18T10:30:50.192Z,5
2018-12-18T10:31:50.288Z,5.01
2018-12-18T10:32:50.212Z,5.02
2018-12-18T10:33:50.238Z,5.04
2018-12-18T10:34:50.134Z,5.08
2018-12-18T10:35:50.980Z,5.11
2018-12-18T10:36:50.124Z,5.14
2018-12-18T10:37:50.154Z,5.18
2018-12-18T10:38:50.193Z,5.16
2018-12-18T10:39:50.508Z,5.21
2018-12-18T10:40:50.337Z,5.23
2018-12-18T10:41:50.140Z,5.28
2018-12-18T10:42:50.154Z,5.29
2018-12-18T10:43:50.512Z,5.35
2018-12-18T10:44:50.152Z,5.39
2018-12-18T10:45:50.194Z,5.42
2018-12-18T10:46:50.141Z,5.46
2018-12-18T10:47:50.224Z,5.54
2018-12-18T10:48:50.607Z,5.59
2018-12-18T10:49:50.936Z,5.63
2018-12-18T10:50:50.357Z,5.64
2018-12-18T10:51:50.218Z,5.69
2018-12-18T10:52:50.949Z,5.73
2018-12-18T10:53:50.203Z,5.77
2018-12-18T10:54:50.263Z,5.8
2018-12-18T10:55:50.114Z,5.81
2018-12-18T10:56:50.102Z,5.9
2018-12-18T10:57:50.131Z,5.91
2018-12-18T10:58:50.677Z,5.97
2018-12-18T10:59:50.433Z,6.01
2018-12-18T11:00:50.131Z,6.08
2018-12-18T11:01:50.933Z,6.09
2018-12-18T11:02:50.443Z,6.11
2018-12-18T11:03:50.368Z,6.18
2018-12-18T11:04:50.094Z,6.16
2018-12-18T11:05:50.213Z,6.16
2018-12-18T11:06:50.202Z,6.16
2018-12-18T11:07:50.169Z,6.19
2018-12-18T11:08:50.174Z,6.2
2018-12-18T11:09:50.081Z,6.22
2018-12-18T11:10:50.162Z,6.29
2018-12-18T11:11:50.120Z,6.32
2018-12-18T11:12:50.120Z,6.35
2018-12-18T11:13:50.070Z,6.39
2018-12-18T11:14:50.146Z,6.36
2018-12-18T11:15:50.134Z,6.35
2018-12-18T11:16:50.196Z,6.37
2018-12-18T11:17:50.126Z,6.43
2018-12-18T11:18:50.071Z,6.44
2018-12-18T11:19:50.097Z,6.48
2018-12-18T11:20:50.085Z,6.48
2018-12-18T11:21:50.074Z,6.54
2018-12-18T11:22:50.075Z,6.58
2018-12-18T11:23:50.279Z,6.63
2018-12-18T11:24:50.116Z,6.67
2018-12-18T11:25:50.362Z,6.7
2018-12-18T11:26:50.317Z,6.75
2018-12-18T11:27:50.187Z,6.75
2018-12-18T11:28:50.481Z,6.81
2018-12-18T11:29:50.310Z,6.84
2018-12-18T11:30:50.183Z,6.87
2018-12-18T11:31:50.301Z,6.91
2018-12-18T11:32:50.560Z,6.87
2018-12-18T11:33:50.382Z,6.91
2018-12-18T11:34:50.149Z,6.92
2018-12-18T11:35:50.217Z,6.91
2018-12-18T11:36:50.264Z,6.95
2018-12-18T11:37:50.883Z,6.96
2018-12-18T11:38:50.398Z,6.99
2018-12-18T11:39:50.193Z,6.99
2018-12-18T11:40:50.522Z,7.03
2018-12-18T11:41:50.441Z,7.06
2018-12-18T11:42:50.137Z,7.05
2018-12-18T11:43:50.081Z,7.03
2018-12-18T11:44:50.079Z,7.01
2018-12-18T11:45:50.088Z,7.05
2018-12-18T11:46:50.317Z,7.12
2018-12-18T11:47:50.461Z,7.13
2018-12-18T11:48:50.638Z,7.12
2018-12-18T11:49:50.170Z,7.08
2018-12-18T11:50:50.095Z,7.11
2018-12-18T11:51:50.274Z,7.13
2018-12-18T11:52:50.381Z,7.19
2018-12-18T11:53:50.152Z,7.23
2018-12-18T11:54:53.367Z,7.2
2018-12-18T11:55:50.036Z,7.19
2018-12-18T11:56:50.082Z,7.24
2018-12-18T11:57:50.431Z,7.23
2018-12-18T11:58:50.162Z,7.2
2018-12-18T11:59:50.090Z,7.22
2018-12-18T12:00:50.111Z,7.23
2018-12-18T12:01:50.018Z,7.23
2018-12-18T12:02:50.090Z,7.26
2018-12-18T12:03:50.272Z,7.27
2018-12-18T12:04:50.037Z,7.3
2018-12-18T12:05:50.157Z,7.27
2018-12-18T12:06:50.276Z,7.23
2018-12-18T12:07:50.022Z,7.22
2018-12-18T12:08:50.387Z,7.19
2018-12-18T12:09:50.174Z,7.15
2018-12-18T12:10:50.109Z,7.11
2018-12-18T12:11:50.110Z,7.11
2018-12-18T12:12:50.340Z,7.06
2018-12-18T12:13:50.100Z,7.08
2018-12-18T12:14:50.068Z,7.06
2018-12-18T12:15:50.078Z,7.05
2018-12-18T12:16:50.089Z,7.06
2018-12-18T12:17:50.102Z,7.03
2018-12-18T12:18:50.443Z,7.02
2018-12-18T12:19:50.553Z,7.02
2018-12-18T12:20:50.348Z,6.98
2018-12-18T12:21:50.067Z,6.98
2018-12-18T12:22:50.364Z,6.96
2018-12-18T12:23:50.120Z,6.98
2018-12-18T12:24:50.283Z,6.96
2018-12-18T12:25:50.133Z,6.96
2018-12-18T12:26:50.061Z,6.98
2018-12-18T12:27:50.162Z,6.99
2018-12-18T12:28:49.986Z,6.96
2018-12-18T12:29:50.696Z,6.98
2018-12-18T12:30:50.184Z,6.98
2018-12-18T12:31:50.017Z,6.96
2018-12-18T12:32:50.494Z,6.98
2018-12-18T12:33:50.350Z,6.92
2018-12-18T12:34:50.118Z,6.9
2018-12-18T12:35:50.781Z,6.92
2018-12-18T12:36:50.411Z,6.91
2018-12-18T12:37:50.221Z,6.91
2018-12-18T12:38:50.199Z,6.92
2018-12-18T12:39:50.051Z,6.92
2018-12-18T12:40:50.095Z,6.92
2018-12-18T12:41:50.146Z,6.91
2018-12-18T12:42:50.225Z,6.91
2018-12-18T12:43:49.971Z,6.92
2018-12-18T12:44:50.519Z,6.91
2018-12-18T12:45:50.250Z,6.92
2018-12-18T12:46:50.198Z,6.92
2018-12-18T12:47:50.306Z,6.9
2018-12-18T12:48:49.990Z,6.88
2018-12-18T12:49:50.324Z,6.9
2018-12-18T12:50:50.110Z,6.92
2018-12-18T12:51:49.968Z,6.92
2018-12-18T12:52:50.304Z,6.94
2018-12-18T12:53:50.120Z,6.96
2018-12-18T12:54:50.192Z,7.01
2018-12-18T12:55:50.198Z,7.05
2018-12-18T12:56:50.163Z,7.05
2018-12-18T12:57:50.017Z,7.06
2018-12-18T12:58:50.016Z,7.12
2018-12-18T12:59:50.145Z,7.13
2018-12-18T13:00:49.986Z,7.12
2018-12-18T13:01:50.043Z,7.15
2018-12-18T13:02:50.035Z,7.19
2018-12-18T13:03:50.229Z,7.22
2018-12-18T13:04:50.114Z,7.26
2018-12-18T13:05:50.052Z,7.27
2018-12-18T13:06:49.989Z,7.26
2018-12-18T13:07:50.299Z,7.29
2018-12-18T13:08:49.984Z,7.31
2018-12-18T13:09:49.978Z,7.36
2018-12-18T13:10:50.289Z,7.36
2018-12-18T13:11:50.106Z,7.37
2018-12-18T13:12:50.047Z,7.39
2018-12-18T13:13:50.220Z,7.37
2018-12-18T13:14:50.280Z,7.39
2018-12-18T13:15:50.767Z,7.4
2018-12-18T13:16:50.163Z,7.41
2018-12-18T13:17:50.013Z,7.41
2018-12-18T13:18:50.003Z,7.43
2018-12-18T13:19:49.977Z,7.43
2018-12-18T13:20:50.018Z,7.43
2018-12-18T13:21:49.994Z,7.43